Terminal Aerodrome Forecast
Issued by NWS St Louis, MO

Home | Current Version | Previous Version | Text Only | Print | Product List | Glossary On
Versions: 1 2 3 4 5 6 7 8 9 10 11 12 13 14 15 16 17 18 19
000
FTUS43 KLSX 241700
TAFCOU
TAF
KCOU 241724Z 2418/2518 16015G24KT P6SM VCSH BKN040
     FM242100 16013KT P6SM OVC030
     FM250300 14012KT 6SM -SHRA VCTS OVC015CB
     FM250800 15010KT 5SM -SHRA VCTS OVC010CB
     FM251300 19012KT P6SM OVC015=

USA.gov is the U.S. government's official web portal to all federal, state and local government web resources and services.